Time;durP1;ratioP1;P1;durP2;ratioP2;P2;SDS_P1;SDS_P2;PMS_P1;PMS_P2;Temp;Humidity;BMP_temperature;BMP_pressure;BME280_temperature;BME280_humidity;BME280_pressure;Samples;Min_cycle;Max_cycle;Signal;HPM_P1;HPM_P2
2021/03/22 00:00:52;;;;;;;97.02;47.80;;;;;;;-2.24;62.15;93585.09;1698978;84;21170;-58
2021/03/22 00:03:22;;;;;;;99.58;47.78;;;;;;;-2.35;62.57;93585.15;1699061;84;21130;-58
2021/03/22 00:05:52;;;;;;;68.83;34.65;;;;;;;-2.36;62.32;93595.73;1699052;84;21146;-57
2021/03/22 00:08:25;;;;;;;61.85;33.18;;;;;;;-2.45;62.29;93591.95;1699076;84;21095;-57
2021/03/22 00:10:54;;;;;;;86.17;43.23;;;;;;;-2.56;62.30;93591.22;1699255;84;21088;-57
2021/03/22 00:13:24;;;;;;;83.17;39.78;;;;;;;-2.64;62.41;93593.21;1698975;84;21515;-58
2021/03/22 00:15:59;;;;;;;77.40;40.12;;;;;;;-2.76;62.55;93586.91;1699158;84;21096;-58
2021/03/22 00:18:32;;;;;;;80.22;40.45;;;;;;;-2.82;62.97;93587.70;1699054;84;21575;-57
2021/03/22 00:21:00;;;;;;;81.70;43.02;;;;;;;-2.73;63.11;93581.34;1698722;84;21194;-57
2021/03/22 00:23:30;;;;;;;120.75;55.28;;;;;;;-2.58;63.09;93583.56;1699052;84;22563;-57
2021/03/22 00:25:59;;;;;;;162.70;75.45;;;;;;;-2.50;62.82;93580.25;1698990;84;21174;-57
2021/03/22 00:28:31;;;;;;;167.13;78.00;;;;;;;-2.51;62.90;93573.34;1699047;84;21158;-57
2021/03/22 00:30:59;;;;;;;160.35;74.82;;;;;;;-2.51;63.28;93568.70;1698966;83;21167;-58
2021/03/22 00:33:28;;;;;;;168.82;80.15;;;;;;;-2.39;63.40;93572.30;1699044;84;21134;-57
2021/03/22 00:35:56;;;;;;;165.10;78.35;;;;;;;-2.32;63.08;93568.20;1698982;84;21206;-57
2021/03/22 00:38:24;;;;;;;135.37;65.52;;;;;;;-2.34;62.98;93573.22;1699014;84;21636;-57
2021/03/22 00:40:54;;;;;;;137.45;64.47;;;;;;;-2.34;62.95;93563.80;1701228;83;21103;-58
2021/03/22 00:43:23;;;;;;;101.90;50.03;;;;;;;-2.27;62.84;93565.68;1708230;84;21487;-58
2021/03/22 00:45:56;;;;;;;;;;;;;;;-2.18;62.50;93563.33;1710656;84;21086;-57
2021/03/22 00:48:25;;;;;;;93.40;43.78;;;;;;;-2.11;62.05;93565.36;1708142;83;21152;-58
2021/03/22 00:50:54;;;;;;;76.45;37.80;;;;;;;-2.16;61.91;93559.66;1708142;84;21165;-57
2021/03/22 00:53:22;;;;;;;81.17;39.45;;;;;;;-2.14;61.83;93552.69;1708100;84;21067;-58
2021/03/22 00:55:51;;;;;;;93.15;40.92;;;;;;;-2.02;61.38;93552.80;1708069;84;21146;-57
2021/03/22 00:58:19;;;;;;;53.85;28.77;;;;;;;-2.00;61.12;93544.52;1708115;84;21142;-57
2021/03/22 01:00:53;;;;;;;66.47;32.45;;;;;;;-2.02;60.59;93547.41;1708104;84;21216;-58
2021/03/22 01:03:29;;;;;;;73.33;35.25;;;;;;;-2.15;60.58;93529.61;1708069;84;21186;-57
2021/03/22 01:05:59;;;;;;;111.47;47.00;;;;;;;-2.17;60.77;93532.54;1684669;84;21637;-57
2021/03/22 01:08:30;;;;;;;106.45;51.13;;;;;;;-2.23;60.94;93532.19;1708105;84;21213;-57
2021/03/22 01:11:03;;;;;;;104.35;49.67;;;;;;;-2.27;61.05;93527.42;1708121;84;21203;-57
2021/03/22 01:13:34;;;;;;;85.17;39.75;;;;;;;-2.35;61.29;93526.52;1708143;83;22136;-58
2021/03/22 01:16:05;;;;;;;43.55;24.90;;;;;;;-2.42;61.14;93517.91;1705829;84;21098;-58
2021/03/22 01:18:37;;;;;;;47.60;29.50;;;;;;;-2.47;61.51;93518.30;1708062;84;21098;-57
2021/03/22 01:21:31;;;;;;;60.30;33.20;;;;;;;-2.55;61.75;93514.73;1708350;82;21068;-57
2021/03/22 01:24:00;;;;;;;63.78;34.80;;;;;;;-2.79;62.22;93511.02;1708124;84;21611;-58
2021/03/22 01:26:32;;;;;;;113.52;58.25;;;;;;;-2.92;63.10;93504.55;1708081;84;21389;-58
2021/03/22 01:29:01;;;;;;;137.18;68.02;;;;;;;-2.99;63.45;93503.82;1708052;84;21157;-57
2021/03/22 01:31:29;;;;;;;102.35;52.00;;;;;;;-3.13;63.58;93506.00;1708142;82;21606;-58
2021/03/22 01:33:57;;;;;;;92.95;52.17;;;;;;;-3.28;63.78;93501.84;1708177;84;21218;-57
2021/03/22 01:36:29;;;;;;;101.62;50.35;;;;;;;-3.37;64.07;93500.72;1708019;82;21099;-56
2021/03/22 01:39:01;;;;;;;101.72;52.08;;;;;;;-3.29;64.18;93497.62;1708225;84;22129;-57
2021/03/22 01:42:10;;;;;;;112.77;55.15;;;;;;;-3.19;64.12;93499.51;1708123;83;21173;-56
2021/03/22 01:45:02;;;;;;;121.95;60.70;;;;;;;-3.04;63.99;93505.58;1708094;84;21135;-59
2021/03/22 01:47:32;;;;;;;116.62;57.40;;;;;;;-2.89;63.67;93501.07;1708102;84;21174;-58
2021/03/22 01:50:17;;;;;;;128.72;62.15;;;;;;;-2.86;63.27;93492.21;1708127;84;21118;-58
2021/03/22 01:52:47;;;;;;;131.27;59.50;;;;;;;-2.77;63.35;93497.16;1708187;84;21359;-57
2021/03/22 01:55:16;;;;;;;63.38;32.25;;;;;;;-2.63;63.29;93499.20;1707950;84;21492;-58
2021/03/22 01:57:46;;;;;;;53.42;30.65;;;;;;;-2.68;62.58;93499.59;1707534;83;21524;-58
2021/03/22 02:00:27;;;;;;;84.22;43.17;;;;;;;-2.75;62.53;93496.19;1708161;82;21522;-57
2021/03/22 02:03:05;;;;;;;149.42;68.30;;;;;;;-2.81;62.54;93494.51;1708177;84;21086;-57
2021/03/22 02:05:37;;;;;;;117.87;56.23;;;;;;;-2.84;62.69;93487.20;1708030;82;21446;-57
2021/03/22 02:08:10;;;;;;;49.25;29.55;;;;;;;-2.76;62.94;93484.67;1708031;84;21614;-57
2021/03/22 02:10:38;;;;;;;38.95;23.30;;;;;;;-2.66;62.41;93478.44;1708075;84;21198;-59
2021/03/22 02:13:07;;;;;;;57.20;30.92;;;;;;;-2.69;61.96;93476.54;1708056;84;21086;-58
2021/03/22 02:15:38;;;;;;;83.42;43.42;;;;;;;-2.93;62.13;93482.06;1708093;83;21106;-58
2021/03/22 02:18:29;;;;;;;122.58;57.85;;;;;;;-3.15;62.71;93484.13;1684317;84;21290;-58
2021/03/22 02:21:29;;;;;;;105.37;54.70;;;;;;;-3.23;63.27;93487.23;1708092;84;21551;-57
2021/03/22 02:24:39;;;;;;;101.35;50.35;;;;;;;-3.27;63.13;93489.92;1708026;84;21068;-57
2021/03/22 02:27:38;;;;;;;113.68;54.42;;;;;;;-3.38;63.49;93486.50;1708042;84;21618;-57
2021/03/22 02:30:32;;;;;;;91.70;45.60;;;;;;;-3.29;63.59;93481.48;1708170;82;21071;-57
2021/03/22 02:33:37;;;;;;;99.17;50.03;;;;;;;-3.19;63.30;93486.06;1708178;84;21386;-57
2021/03/22 02:36:28;;;;;;;98.75;50.48;;;;;;;-3.23;63.20;93487.98;1708152;84;21086;-57
2021/03/22 02:39:00;;;;;;;99.95;50.38;;;;;;;-3.28;63.36;93478.98;1708192;84;21075;-57
2021/03/22 02:41:42;;;;;;;100.92;49.93;;;;;;;-3.31;63.66;93466.33;1708285;83;21141;-58
2021/03/22 02:44:23;;;;;;;95.25;48.98;;;;;;;-3.28;63.47;93472.27;1708296;84;21588;-58
2021/03/22 02:46:56;;;;;;;70.53;37.00;;;;;;;-3.41;63.72;93465.78;1708477;84;21351;-56
2021/03/22 02:49:25;;;;;;;50.60;27.70;;;;;;;-3.50;63.79;93461.98;1708314;82;21520;-57
2021/03/22 02:52:10;;;;;;;43.80;25.60;;;;;;;-3.48;63.93;93460.45;1708201;84;21082;-57
2021/03/22 02:54:55;;;;;;;35.60;21.30;;;;;;;-3.40;63.82;93463.28;1708289;84;21162;-57
2021/03/22 02:57:53;;;;;;;29.77;19.35;;;;;;;-3.35;63.65;93468.27;1708216;84;21067;-58
2021/03/22 03:00:29;;;;;;;35.00;22.32;;;;;;;-3.31;63.19;93463.64;1708310;84;22280;-57
2021/03/22 03:03:10;;;;;;;42.85;25.82;;;;;;;-3.27;63.22;93471.11;1685027;84;21078;-58
2021/03/22 03:05:38;;;;;;;58.63;29.90;;;;;;;-3.19;62.98;93473.97;1708367;84;21146;-57
2021/03/22 03:08:10;;;;;;;69.82;37.10;;;;;;;-3.10;62.91;93458.72;1708138;84;21087;-58
2021/03/22 03:10:38;;;;;;;19.98;14.50;;;;;;;-3.01;62.80;93463.88;1708225;84;21083;-57
2021/03/22 03:13:06;;;;;;;21.48;15.45;;;;;;;-2.95;62.20;93477.09;1708170;84;21369;-57
2021/03/22 03:15:35;;;;;;;23.32;15.58;;;;;;;-2.91;61.89;93474.39;1707895;84;21107;-57
2021/03/22 03:18:04;;;;;;;22.40;15.50;;;;;;;-2.91;61.66;93479.78;1708191;84;21099;-58
2021/03/22 03:20:32;;;;;;;51.73;16.02;;;;;;;-2.94;61.65;93477.84;1708118;84;21086;-59
2021/03/22 03:23:01;;;;;;;27.58;18.10;;;;;;;-2.97;61.84;93482.67;1708304;84;21507;-57
2021/03/22 03:25:29;;;;;;;49.35;18.70;;;;;;;-2.95;61.83;93488.42;1708172;84;21428;-57
2021/03/22 03:28:03;;;;;;;26.25;16.52;;;;;;;-2.99;61.87;93485.77;1708229;84;21535;-57
2021/03/22 03:30:35;;;;;;;51.60;25.92;;;;;;;-3.02;61.94;93493.25;1708197;82;21126;-60
2021/03/22 03:33:06;;;;;;;37.43;23.07;;;;;;;-3.13;62.11;93487.18;1708435;84;21082;-58
2021/03/22 03:35:35;;;;;;;67.22;34.38;;;;;;;-3.17;62.47;93486.44;1684531;84;21102;-58
2021/03/22 03:38:05;;;;;;;84.20;45.48;;;;;;;-3.13;62.78;93489.09;1708169;84;22382;-57
2021/03/22 03:40:42;;;;;;;167.15;48.90;;;;;;;-3.07;62.61;93485.60;1708092;84;21087;-57
2021/03/22 03:43:11;;;;;;;72.45;40.25;;;;;;;-3.12;62.84;93480.64;1707809;83;21138;-56
2021/03/22 03:45:41;;;;;;;71.80;41.23;;;;;;;-3.14;62.86;93484.87;1708110;82;21597;-57
2021/03/22 03:48:19;;;;;;;79.47;39.55;;;;;;;-3.18;63.23;93484.13;1708333;84;21146;-57
2021/03/22 03:50:46;;;;;;;74.10;39.20;;;;;;;-3.13;63.71;93473.73;1708219;84;21255;-57
2021/03/22 03:53:16;;;;;;;73.60;37.33;;;;;;;-2.91;63.79;93477.84;1708096;84;21102;-57
2021/03/22 03:55:44;;;;;;;77.82;43.52;;;;;;;-2.73;63.53;93472.36;1708159;84;21106;-57
2021/03/22 03:58:12;;;;;;;68.60;39.42;;;;;;;-2.72;63.51;93466.57;1708174;84;21166;-58
2021/03/22 04:00:43;;;;;;;71.10;36.60;;;;;;;-2.73;63.64;93462.35;1708142;84;21096;-57
2021/03/22 04:03:23;;;;;;;87.82;42.30;;;;;;;-2.56;63.83;93469.55;1708169;84;21221;-57
2021/03/22 04:06:05;;;;;;;83.42;40.23;;;;;;;-2.31;63.29;93468.77;1708195;84;21590;-57
2021/03/22 04:08:37;;;;;;;64.53;32.95;;;;;;;-2.19;62.71;93464.25;1702196;84;21047;-57
2021/03/22 04:11:07;;;;;;;77.50;42.13;;;;;;;-2.13;62.63;93457.86;1708354;84;21491;-56
2021/03/22 04:13:35;;;;;;;78.15;41.28;;;;;;;-2.03;62.44;93466.41;1708206;84;21063;-57
2021/03/22 04:16:06;;;;;;;74.17;43.23;;;;;;;-1.89;62.17;93467.63;1708125;84;21217;-56
2021/03/22 04:18:36;;;;;;;77.08;45.08;;;;;;;-1.75;61.80;93472.29;1708180;84;21118;-57
2021/03/22 04:21:11;;;;;;;87.22;46.68;;;;;;;-1.57;61.36;93472.88;1708090;84;21086;-57
2021/03/22 04:23:44;;;;;;;104.55;50.98;;;;;;;-1.46;60.89;93474.31;1707786;84;21154;-57
2021/03/22 04:26:12;;;;;;;;;;;;;;;-1.37;60.73;93471.11;1710802;84;21594;-58
2021/03/22 04:28:42;;;;;;;85.20;46.23;;;;;;;-1.29;60.53;93468.53;1708189;84;20240;-57
2021/03/22 04:31:17;;;;;;;104.25;50.28;;;;;;;-1.26;60.07;93473.11;1707987;82;21149;-57
2021/03/22 04:33:45;;;;;;;120.75;52.43;;;;;;;-1.34;60.21;93467.03;1708096;83;21593;-57
2021/03/22 04:36:14;;;;;;;103.42;48.83;;;;;;;-1.43;60.28;93470.81;1708082;84;21194;-56
2021/03/22 04:38:42;;;;;;;78.85;39.18;;;;;;;-1.51;60.46;93468.59;1708231;84;21496;-57
2021/03/22 04:41:10;;;;;;;63.40;37.58;;;;;;;-1.62;60.85;93470.63;1708065;84;21914;-57
2021/03/22 04:43:38;;;;;;;57.83;34.18;;;;;;;-1.65;61.05;93467.39;1700402;83;21186;-57
2021/03/22 04:46:07;;;;;;;81.55;46.48;;;;;;;-1.63;61.14;93469.09;1698980;84;21489;-58
2021/03/22 04:48:37;;;;;;;104.75;52.88;;;;;;;-1.62;61.21;93478.72;1699458;84;21169;-57
2021/03/22 04:51:06;;;;;;;79.35;42.90;;;;;;;-1.56;61.28;93477.10;1699020;84;21071;-57
2021/03/22 04:53:34;;;;;;;82.05;44.60;;;;;;;-1.42;61.02;93476.95;1698980;84;21344;-57
2021/03/22 04:56:07;;;;;;;76.70;41.48;;;;;;;-1.28;60.75;93468.70;1698916;84;21938;-57
2021/03/22 04:58:35;;;;;;;80.72;41.68;;;;;;;-1.20;60.09;93467.45;1698985;84;21076;-57
2021/03/22 05:01:04;;;;;;;75.50;41.37;;;;;;;-1.18;60.11;93473.98;1678940;84;21523;-58
2021/03/22 05:03:32;;;;;;;66.22;38.67;;;;;;;-1.20;59.82;93474.19;1699047;84;21062;-58
2021/03/22 05:06:03;;;;;;;73.20;42.08;;;;;;;-1.32;59.84;93474.73;1699012;84;23492;-58
2021/03/22 05:08:31;;;;;;;74.65;42.23;;;;;;;-1.43;60.47;93476.77;1698970;84;21170;-58
2021/03/22 05:11:00;;;;;;;67.47;37.00;;;;;;;-1.36;60.40;93472.67;1698967;84;21547;-57
2021/03/22 05:13:29;;;;;;;63.85;35.92;;;;;;;-1.27;60.34;93483.72;1699005;84;21602;-58
2021/03/22 05:15:57;;;;;;;72.10;42.80;;;;;;;-1.31;60.13;93481.66;1699036;84;21095;-57
2021/03/22 05:18:27;;;;;;;76.95;42.38;;;;;;;-1.45;60.39;93484.50;1699075;84;22145;-57
2021/03/22 05:21:01;;;;;;;85.70;45.00;;;;;;;-1.53;60.84;93483.06;1698976;84;21103;-58
2021/03/22 05:23:31;;;;;;;98.60;49.75;;;;;;;-1.43;61.27;93482.16;1698988;84;21174;-58
2021/03/22 05:25:59;;;;;;;83.47;46.53;;;;;;;-1.28;61.29;93479.50;1699006;84;21159;-58
2021/03/22 05:28:29;;;;;;;93.20;51.28;;;;;;;-1.25;61.07;93481.38;1699037;84;21511;-57
2021/03/22 05:30:57;;;;;;;90.72;48.38;;;;;;;-1.15;61.06;93479.16;1698948;83;21209;-58
2021/03/22 05:33:25;;;;;;;81.90;45.23;;;;;;;-0.94;61.06;93489.08;1698916;84;21107;-57
2021/03/22 05:35:57;;;;;;;73.90;39.58;;;;;;;-0.87;60.43;93482.83;1699054;84;21067;-55
2021/03/22 05:38:24;;;;;;;71.33;41.20;;;;;;;-0.83;60.16;93487.59;1698970;83;21158;-57
2021/03/22 05:41:04;;;;;;;81.35;41.63;;;;;;;-0.83;60.12;93483.55;1699016;84;21099;-57
2021/03/22 05:43:52;;;;;;;77.22;45.25;;;;;;;-0.79;59.82;93487.73;1704927;83;22372;-57
2021/03/22 05:46:32;;;;;;;68.83;41.37;;;;;;;-0.83;60.19;93491.64;1707963;82;21189;-58
2021/03/22 05:49:22;;;;;;;97.30;49.38;;;;;;;-0.68;60.07;93491.64;1708077;84;21107;-56
2021/03/22 05:52:12;;;;;;;98.50;50.28;;;;;;;-0.62;60.22;93496.78;1708094;84;21158;-57
2021/03/22 05:55:04;;;;;;;85.28;47.03;;;;;;;-0.62;60.35;93487.33;1708167;84;21187;-57
2021/03/22 05:58:11;;;;;;;88.65;49.35;;;;;;;-0.45;60.17;93483.02;1708037;84;21245;-57
2021/03/22 06:00:54;;;;;;;70.37;36.40;;;;;;;-0.28;59.94;93491.45;1649678;87;21239;-58
2021/03/22 06:03:47;;;;;;;137.55;69.72;;;;;;;-0.14;58.83;93488.54;1649775;85;21134;-58
2021/03/22 06:06:36;;;;;;;92.27;49.55;;;;;;;-0.09;58.07;93483.23;1688169;84;21506;-59
2021/03/22 06:09:14;;;;;;;83.82;45.83;;;;;;;-0.19;57.74;93486.88;1708207;84;21070;-58
2021/03/22 06:12:10;;;;;;;74.20;38.95;;;;;;;-0.29;57.95;93489.14;1693902;82;21218;-58
2021/03/22 06:14:59;;;;;;;57.43;30.08;;;;;;;-0.35;58.02;93489.44;1707770;84;38520;-58
2021/03/22 06:17:40;;;;;;;42.45;24.63;;;;;;;-0.39;57.65;93498.19;1707152;84;21181;-59
2021/03/22 06:20:23;;;;;;;65.83;38.58;;;;;;;-0.36;57.57;93491.96;1683451;84;21193;-57
2021/03/22 06:22:53;;;;;;;79.57;43.87;;;;;;;-0.33;57.56;93488.44;1705738;84;21547;-58
2021/03/22 06:25:26;;;;;;;71.30;39.48;;;;;;;-0.31;58.09;93490.92;1672110;84;21322;-59
2021/03/22 06:27:54;;;;;;;;;;;;;;;-0.24;58.26;93490.80;1704598;83;21523;-57
2021/03/22 06:30:24;;;;;;;48.80;26.87;;;;;;;-0.11;58.07;93494.47;1708022;82;20418;-59
2021/03/22 06:32:56;;;;;;;49.80;30.37;;;;;;;0.03;57.84;93488.24;1696943;84;21161;-58
2021/03/22 06:35:32;;;;;;;63.83;33.23;;;;;;;0.17;57.46;93489.94;1679593;85;21105;-57
2021/03/22 06:37:59;;;;;;;52.93;33.67;;;;;;;0.35;57.47;93487.70;1690237;84;22113;-59
2021/03/22 06:40:32;;;;;;;48.98;30.37;;;;;;;0.58;57.12;93491.75;1704935;84;21166;-59
2021/03/22 06:43:13;;;;;;;51.90;28.45;;;;;;;0.77;56.21;93485.00;1688183;83;21192;-61
2021/03/22 06:45:54;;;;;;;44.77;26.52;;;;;;;0.78;55.79;93483.81;1694399;84;21230;-61
2021/03/22 06:48:32;;;;;;;40.55;23.40;;;;;;;0.92;55.44;93482.80;1678825;84;21206;-59
2021/03/22 06:51:13;;;;;;;39.78;23.52;;;;;;;1.15;54.69;93472.62;1695057;84;22307;-59
2021/03/22 06:53:47;;;;;;;37.38;22.40;;;;;;;1.25;54.22;93472.23;1672731;84;21229;-59
2021/03/22 06:56:37;;;;;;;28.83;18.07;;;;;;;1.30;53.73;93477.92;1675377;84;21164;-61
2021/03/22 06:59:17;;;;;;;29.85;19.07;;;;;;;1.32;53.31;93480.23;1686819;84;21701;-60
2021/03/22 07:01:47;;;;;;;27.15;17.17;;;;;;;1.42;52.91;93475.94;1671972;84;21111;-59
2021/03/22 07:04:30;;;;;;;29.35;17.25;;;;;;;1.58;53.18;93481.98;1692361;84;21202;-60
2021/03/22 07:07:18;;;;;;;25.85;15.65;;;;;;;1.66;52.79;93482.01;1673482;85;28425;-62
2021/03/22 07:09:54;;;;;;;31.65;20.23;;;;;;;1.90;52.27;93480.06;1689643;84;21265;-62
2021/03/22 07:12:35;;;;;;;29.57;18.30;;;;;;;2.00;51.79;93487.20;1666452;84;21229;-59
2021/03/22 07:15:32;;;;;;;36.60;18.35;;;;;;;2.08;51.41;93487.19;1673669;84;21193;-59
2021/03/22 07:18:30;;;;;;;34.15;20.15;;;;;;;2.16;51.17;93485.84;1672307;85;21250;-65
2021/03/22 07:21:15;;;;;;;40.10;25.68;;;;;;;2.14;51.05;93483.55;1690747;84;22977;-64
2021/03/22 07:24:00;;;;;;;55.67;28.50;;;;;;;2.09;51.31;93490.07;1694150;83;21215;-61
2021/03/22 07:26:46;;;;;;;40.03;24.77;;;;;;;2.12;51.41;93483.82;1693181;84;21237;-62
2021/03/22 07:29:47;;;;;;;44.45;27.65;;;;;;;2.15;51.41;93488.39;1672461;85;21716;-58
2021/03/22 07:32:46;;;;;;;41.63;25.00;;;;;;;2.14;51.44;93489.58;1672576;84;22278;-60
2021/03/22 07:35:49;;;;;;;51.53;30.70;;;;;;;2.10;51.73;93484.84;1694519;84;21189;-62
2021/03/22 07:38:51;;;;;;;40.28;25.10;;;;;;;2.22;51.65;93486.86;1679043;84;21197;-60
2021/03/22 07:41:42;;;;;;;57.40;33.08;;;;;;;2.50;51.61;93491.59;1686113;82;21142;-59
2021/03/22 07:44:37;;;;;;;;;;;;;;;2.71;50.96;93495.12;1692672;82;21565;-60
2021/03/22 07:47:13;;;;;;;93.10;54.98;;;;;;;2.77;50.75;93491.46;1692982;82;21452;-60
2021/03/22 07:50:11;;;;;;;57.23;32.83;;;;;;;2.97;51.08;93495.38;1681908;82;21204;-59
2021/03/22 07:52:43;;;;;;;55.50;33.30;;;;;;;3.25;50.75;93494.63;1691936;84;21206;-62
2021/03/22 07:55:38;;;;;;;50.10;31.90;;;;;;;3.47;50.03;93498.25;1667688;84;21206;-63
2021/03/22 07:58:21;;;;;;;47.10;31.85;;;;;;;3.74;49.82;93499.39;1693590;82;21202;-67
2021/03/22 08:01:04;;;;;;;;;;;;;;;3.97;49.41;93497.13;1670173;82;21283;-62
2021/03/22 08:04:16;;;;;;;47.88;28.05;;;;;;;4.08;49.27;93492.09;1689843;82;20563;-59
2021/03/22 08:07:12;;;;;;;43.87;26.10;;;;;;;4.16;48.84;93498.86;1686232;82;21170;-66
2021/03/22 08:10:28;;;;;;;38.58;25.65;;;;;;;4.15;48.99;93499.28;1693945;82;21630;-66
2021/03/22 08:13:20;;;;;;;37.70;23.75;;;;;;;4.07;49.08;93489.22;1660036;84;21135;-59
2021/03/22 08:15:59;;;;;;;51.05;31.25;;;;;;;4.19;49.41;93491.18;1687874;84;21212;-59
2021/03/22 08:18:44;;;;;;;52.25;30.12;;;;;;;4.32;49.26;93490.58;1695351;84;21271;-66
2021/03/22 08:21:31;;;;;;;44.10;28.52;;;;;;;4.54;48.83;93487.32;1690486;82;21932;-61
2021/03/22 08:24:26;;;;;;;40.25;26.10;;;;;;;4.73;48.73;93484.93;1683253;82;21193;-61
2021/03/22 08:27:06;;;;;;;52.35;31.68;;;;;;;4.93;48.29;93481.32;1701481;82;21281;-62
2021/03/22 08:29:36;;;;;;;53.05;31.10;;;;;;;5.05;47.66;93483.25;1691283;82;21261;-62
2021/03/22 08:32:19;;;;;;;60.43;34.65;;;;;;;5.21;47.79;93485.02;1679771;84;21220;-63
2021/03/22 08:34:53;;;;;;;55.03;33.60;;;;;;;5.42;47.10;93480.94;1693442;84;21262;-62
2021/03/22 08:37:55;;;;;;;83.75;35.38;;;;;;;5.53;46.13;93485.39;1867109;74;22000;-60
2021/03/22 08:40:47;;;;;;;53.83;33.28;;;;;;;5.48;46.31;93490.06;1834833;75;22178;-64
2021/03/22 08:44:00;;;;;;;43.05;26.62;;;;;;;5.47;46.43;93488.55;1853370;75;21377;-62
2021/03/22 08:46:42;;;;;;;35.13;23.33;;;;;;;5.45;46.38;93493.06;1840075;75;21043;-68
2021/03/22 08:49:29;;;;;;;32.00;23.05;;;;;;;5.45;46.38;93493.06;1841929;76;21858;-63
2021/03/22 08:51:58;;;;;;;32.48;23.75;;;;;;;5.46;46.55;93502.77;1829068;76;21123;-66
2021/03/22 08:54:33;;;;;;;33.75;22.58;;;;;;;5.45;46.36;93505.95;1777249;80;21225;-63
2021/03/22 08:57:09;;;;;;;22.82;16.62;;;;;;;5.41;46.74;93505.33;1777715;79;21402;-61
2021/03/22 08:59:37;;;;;;;31.33;19.10;;;;;;;5.39;46.59;93505.02;1770895;79;21145;-66
2021/03/22 09:02:19;;;;;;;20.62;15.45;;;;;;;5.44;47.15;93503.08;1777122;80;21831;-62
2021/03/22 09:04:49;;;;;;;28.80;20.12;;;;;;;5.43;48.03;93512.45;1807426;78;21190;-63
2021/03/22 09:07:22;;;;;;;24.37;16.48;;;;;;;5.26;49.01;93513.84;1827732;77;21611;-65
2021/03/22 09:09:50;;;;;;;;;;;;;;;5.13;50.36;93513.13;1821841;77;21206;-62
2021/03/22 09:12:45;;;;;;;21.62;15.78;;;;;;;5.06;51.28;93517.47;1799258;78;20655;-61
2021/03/22 09:15:39;;;;;;;25.75;17.82;;;;;;;5.07;51.93;93523.08;1773673;79;21182;-63
2021/03/22 09:18:15;;;;;;;22.50;17.25;;;;;;;5.02;52.51;93522.87;1775300;80;21698;-62
2021/03/22 09:20:55;;;;;;;22.77;17.12;;;;;;;5.05;53.31;93521.41;1765305;79;21245;-60
2021/03/22 09:23:39;;;;;;;28.90;20.35;;;;;;;5.11;53.94;93522.97;1758238;81;21728;-65
2021/03/22 09:26:09;;;;;;;24.37;16.75;;;;;;;5.06;54.30;93529.73;1779304;80;21190;-63
2021/03/22 09:28:47;;;;;;;23.47;16.73;;;;;;;4.97;55.00;93529.64;1787808;80;21114;-67
2021/03/22 09:31:22;;;;;;;25.72;18.37;;;;;;;4.86;55.48;93534.70;1783153;77;21485;-64
2021/03/22 09:34:08;;;;;;;26.10;19.40;;;;;;;4.75;55.43;93538.36;1772848;79;21204;-61
2021/03/22 09:36:41;;;;;;;25.37;18.77;;;;;;;4.73;55.79;93538.05;1772645;79;21472;-59
2021/03/22 09:39:24;;;;;;;29.85;21.00;;;;;;;4.74;56.47;93539.56;1772740;79;21181;-62
2021/03/22 09:42:07;;;;;;;22.93;16.60;;;;;;;4.74;56.68;93543.66;1780658;78;21222;-61
2021/03/22 09:44:39;;;;;;;31.37;21.37;;;;;;;4.78;56.49;93546.27;1778344;79;21175;-60
2021/03/22 09:47:20;;;;;;;26.80;17.57;;;;;;;4.84;56.93;93552.09;1787555;78;21588;-66
2021/03/22 09:50:14;;;;;;;32.23;22.95;;;;;;;4.79;56.96;93551.88;1778689;79;21396;-63
2021/03/22 09:52:58;;;;;;;28.40;21.00;;;;;;;4.61;57.23;93559.24;1757365;80;21154;-62
2021/03/22 09:55:32;;;;;;;31.60;22.42;;;;;;;4.55;57.72;93554.20;1729230;81;26885;-64
2021/03/22 09:58:40;;;;;;;28.52;20.82;;;;;;;4.55;58.45;93567.03;1777665;80;21249;-62
2021/03/22 10:01:36;;;;;;;26.25;18.40;;;;;;;4.43;58.83;93565.84;1776379;79;21213;-57
2021/03/22 10:04:33;;;;;;;27.27;20.32;;;;;;;4.31;59.48;93563.91;1802749;79;22132;-61
2021/03/22 10:07:22;;;;;;;43.48;28.32;;;;;;;4.24;59.94;93558.66;1752607;80;21620;-59
2021/03/22 10:10:00;;;;;;;34.05;21.20;;;;;;;4.35;59.52;93564.55;1743104;81;21188;-60
2021/03/22 10:12:37;;;;;;;33.00;20.85;;;;;;;4.47;59.04;93562.44;1785165;79;21216;-64
2021/03/22 10:15:29;;;;;;;33.15;23.57;;;;;;;4.49;59.07;93566.84;1756023;81;21231;-67
2021/03/22 10:18:09;;;;;;;30.35;21.93;;;;;;;4.51;59.28;93570.47;1787044;78;21848;-66
2021/03/22 10:20:50;;;;;;;38.05;26.30;;;;;;;4.49;59.50;93574.23;1754595;80;21146;-63
2021/03/22 10:23:38;;;;;;;29.82;20.92;;;;;;;4.54;59.48;93587.30;1790592;78;21231;-65
2021/03/22 10:26:15;;;;;;;30.95;21.05;;;;;;;4.55;59.47;93584.14;1745895;81;21218;-65
2021/03/22 10:28:44;;;;;;;28.42;19.32;;;;;;;4.29;59.84;93581.28;1786780;78;21108;-60
2021/03/22 10:31:24;;;;;;;28.15;21.00;;;;;;;4.20;60.45;93583.87;1787711;78;22179;-62
2021/03/22 10:34:01;;;;;;;29.12;20.70;;;;;;;4.11;60.71;93585.13;1787042;78;21447;-61
2021/03/22 10:36:38;;;;;;;23.62;16.60;;;;;;;4.09;61.36;93583.41;1785706;79;21182;-62
2021/03/22 10:39:09;;;;;;;25.97;19.25;;;;;;;4.14;61.24;93585.62;1755275;81;21175;-59
2021/03/22 10:41:40;;;;;;;35.98;26.68;;;;;;;4.04;61.33;93578.52;1756980;81;21183;-61
2021/03/22 10:44:25;;;;;;;35.78;26.07;;;;;;;4.01;61.51;93585.41;1787927;78;22299;-62
2021/03/22 10:47:13;;;;;;;32.33;22.17;;;;;;;3.97;61.60;93580.68;1755784;81;22093;-62
2021/03/22 10:49:41;;;;;;;30.97;21.90;;;;;;;3.79;62.11;93590.73;1766637;78;21150;-60
2021/03/22 10:52:26;;;;;;;39.03;28.73;;;;;;;3.65;62.55;93584.94;1765720;80;21761;-63
2021/03/22 10:54:55;;;;;;;53.92;37.48;;;;;;;3.59;63.25;93586.63;1754276;79;21596;-62
2021/03/22 10:57:39;;;;;;;36.98;25.77;;;;;;;3.56;63.83;93595.07;1794888;78;21867;-61
2021/03/22 11:00:16;;;;;;;58.52;40.60;;;;;;;3.66;64.18;93583.73;1726887;81;21193;-63
2021/03/22 11:02:48;;;;;;;43.00;29.23;;;;;;;3.84;64.12;93576.58;1782621;78;21691;-62
2021/03/22 11:05:20;;;;;;;47.80;32.60;;;;;;;3.96;64.11;93578.58;1762674;80;21164;-61
2021/03/22 11:08:04;;;;;;;55.73;36.85;;;;;;;4.11;63.90;93579.69;1768160;80;21175;-64
2021/03/22 11:10:34;;;;;;;57.55;36.70;;;;;;;4.38;62.85;93578.66;1770596;79;21406;-63
2021/03/22 11:13:03;;;;;;;34.00;23.73;;;;;;;4.68;62.49;93575.37;1726139;81;21135;-65
2021/03/22 11:15:35;;;;;;;32.20;24.85;;;;;;;4.72;61.61;93566.48;1775761;78;21170;-66
2021/03/22 11:18:07;;;;;;;30.52;22.70;;;;;;;4.67;61.80;93577.94;1758946;80;21636;-60
2021/03/22 11:20:44;;;;;;;27.80;19.95;;;;;;;4.60;61.82;93572.70;1732970;81;21233;-65
2021/03/22 11:23:25;;;;;;;24.07;18.52;;;;;;;4.65;61.21;93578.98;1762034;79;21229;-63
2021/03/22 11:25:49;;;;;;;17.62;13.80;;;;;;;4.80;60.26;93562.32;1762532;79;21174;-58
2021/03/22 11:28:26;;;;;;;28.57;21.20;;;;;;;4.98;58.81;93572.66;1782307;79;22096;-66
2021/03/22 11:31:00;;;;;;;19.37;15.53;;;;;;;5.10;59.49;93582.16;1779769;79;21533;-61
2021/03/22 11:33:45;;;;;;;15.40;12.18;;;;;;;5.14;57.65;93563.71;1784749;79;21259;-58
2021/03/22 11:36:20;;;;;;;15.70;12.85;;;;;;;5.04;57.88;93578.47;1702785;81;21601;-61
2021/03/22 11:38:55;;;;;;;18.65;15.53;;;;;;;4.85;56.71;93583.58;1736914;81;21241;-61
2021/03/22 11:41:44;;;;;;;15.20;12.80;;;;;;;4.60;58.63;93586.31;1742147;80;21189;-61
2021/03/22 11:44:32;;;;;;;10.85;9.10;;;;;;;4.57;59.05;93574.94;1735359;81;21023;-63
2021/03/22 11:47:44;;;;;;;12.10;8.95;;;;;;;4.56;57.20;93587.03;1733615;81;21909;-61
2021/03/22 11:50:45;;;;;;;11.25;8.35;;;;;;;4.72;56.85;93575.23;1709964;82;21261;-60
2021/03/22 11:53:19;;;;;;;8.83;7.92;;;;;;;5.12;54.42;93577.02;1726359;81;21146;-63
2021/03/22 11:55:53;;;;;;;12.18;9.28;;;;;;;5.17;52.83;93575.09;1736140;82;21177;-63
2021/03/22 11:58:39;;;;;;;7.83;7.12;;;;;;;5.08;53.94;93571.52;1733590;81;21169;-65
2021/03/22 12:01:28;;;;;;;8.48;7.60;;;;;;;5.00;54.58;93577.80;1708844;82;21889;-62
2021/03/22 12:04:09;;;;;;;9.40;8.50;;;;;;;4.82;55.33;93580.96;1727617;81;22333;-64
2021/03/22 12:07:02;;;;;;;11.05;9.95;;;;;;;4.75;56.56;93592.84;1751379;81;21202;-63
2021/03/22 12:09:31;;;;;;;10.82;8.38;;;;;;;4.79;57.30;93600.30;1753410;80;22310;-65
2021/03/22 12:12:04;;;;;;;9.73;8.58;;;;;;;4.73;55.66;93584.34;1743214;80;21163;-59